sensor_id;sensor_type;location;lat;lon;timestamp;P1;durP1;ratioP1;P2;durP2;ratioP2
3491;SDS011;1760;52.480;13.422;2023-05-10T00:02:21;6.80;;;5.00;;
3491;SDS011;1760;52.480;13.422;2023-05-10T00:04:49;5.33;;;3.77;;
3491;SDS011;1760;52.480;13.422;2023-05-10T00:07:17;6.63;;;4.53;;
3491;SDS011;1760;52.480;13.422;2023-05-10T00:09:44;5.17;;;4.10;;
3491;SDS011;1760;52.480;13.422;2023-05-10T00:12:13;5.50;;;3.97;;
3491;SDS011;1760;52.480;13.422;2023-05-10T00:14:40;6.63;;;4.03;;
3491;SDS011;1760;52.480;13.422;2023-05-10T00:17:09;10.43;;;4.97;;
3491;SDS011;1760;52.480;13.422;2023-05-10T00:19:36;8.37;;;4.47;;
3491;SDS011;1760;52.480;13.422;2023-05-10T00:22:03;7.30;;;4.40;;
3491;SDS011;1760;52.480;13.422;2023-05-10T00:24:30;4.50;;;3.73;;
3491;SDS011;1760;52.480;13.422;2023-05-10T00:26:57;6.43;;;4.50;;
3491;SDS011;1760;52.480;13.422;2023-05-10T00:29:25;7.60;;;3.80;;
3491;SDS011;1760;52.480;13.422;2023-05-10T00:31:53;4.87;;;3.40;;
3491;SDS011;1760;52.480;13.422;2023-05-10T00:34:22;6.50;;;4.37;;
3491;SDS011;1760;52.480;13.422;2023-05-10T00:36:49;7.03;;;3.10;;
3491;SDS011;1760;52.480;13.422;2023-05-10T00:39:17;7.10;;;4.50;;
3491;SDS011;1760;52.480;13.422;2023-05-10T00:41:44;4.50;;;3.63;;
3491;SDS011;1760;52.480;13.422;2023-05-10T00:44:11;13.63;;;4.60;;
3491;SDS011;1760;52.480;13.422;2023-05-10T00:46:38;6.00;;;4.00;;
3491;SDS011;1760;52.480;13.422;2023-05-10T00:49:05;7.63;;;4.27;;
3491;SDS011;1760;52.480;13.422;2023-05-10T00:51:34;7.50;;;4.07;;
3491;SDS011;1760;52.480;13.422;2023-05-10T00:54:01;7.00;;;4.00;;
3491;SDS011;1760;52.480;13.422;2023-05-10T00:56:29;7.43;;;5.10;;
3491;SDS011;1760;52.480;13.422;2023-05-10T00:58:56;7.13;;;4.20;;
3491;SDS011;1760;52.480;13.422;2023-05-10T01:01:23;7.90;;;4.50;;
3491;SDS011;1760;52.480;13.422;2023-05-10T01:03:50;6.17;;;4.63;;
3491;SDS011;1760;52.480;13.422;2023-05-10T01:06:18;7.10;;;4.87;;
3491;SDS011;1760;52.480;13.422;2023-05-10T01:08:47;6.83;;;4.90;;
3491;SDS011;1760;52.480;13.422;2023-05-10T01:11:14;5.10;;;4.27;;
3491;SDS011;1760;52.480;13.422;2023-05-10T01:13:42;4.47;;;4.07;;
3491;SDS011;1760;52.480;13.422;2023-05-10T01:16:13;6.83;;;4.43;;
3491;SDS011;1760;52.480;13.422;2023-05-10T01:18:40;7.43;;;4.43;;
3491;SDS011;1760;52.480;13.422;2023-05-10T01:21:12;3.97;;;3.67;;
3491;SDS011;1760;52.480;13.422;2023-05-10T01:26:52;5.57;;;4.13;;
3491;SDS011;1760;52.480;13.422;2023-05-10T01:30:05;6.13;;;4.20;;
3491;SDS011;1760;52.480;13.422;2023-05-10T01:33:02;5.70;;;4.37;;
3491;SDS011;1760;52.480;13.422;2023-05-10T01:35:37;5.50;;;4.20;;
3491;SDS011;1760;52.480;13.422;2023-05-10T01:38:11;7.90;;;4.80;;
3491;SDS011;1760;52.480;13.422;2023-05-10T01:40:46;5.50;;;3.97;;
3491;SDS011;1760;52.480;13.422;2023-05-10T01:43:24;7.17;;;4.73;;
3491;SDS011;1760;52.480;13.422;2023-05-10T01:45:56;6.20;;;4.10;;
3491;SDS011;1760;52.480;13.422;2023-05-10T01:48:35;5.10;;;4.37;;
3491;SDS011;1760;52.480;13.422;2023-05-10T01:51:04;4.80;;;4.20;;
3491;SDS011;1760;52.480;13.422;2023-05-10T01:53:32;8.60;;;5.63;;
3491;SDS011;1760;52.480;13.422;2023-05-10T01:56:02;6.77;;;4.60;;
3491;SDS011;1760;52.480;13.422;2023-05-10T01:58:31;4.57;;;4.03;;
3491;SDS011;1760;52.480;13.422;2023-05-10T02:01:01;4.90;;;3.67;;
3491;SDS011;1760;52.480;13.422;2023-05-10T02:03:30;7.00;;;4.43;;
3491;SDS011;1760;52.480;13.422;2023-05-10T02:05:59;8.90;;;5.00;;
3491;SDS011;1760;52.480;13.422;2023-05-10T02:08:27;6.23;;;4.27;;
3491;SDS011;1760;52.480;13.422;2023-05-10T02:10:55;5.73;;;4.40;;
3491;SDS011;1760;52.480;13.422;2023-05-10T02:13:23;5.60;;;4.93;;
3491;SDS011;1760;52.480;13.422;2023-05-10T02:15:51;4.53;;;3.87;;
3491;SDS011;1760;52.480;13.422;2023-05-10T02:18:20;5.40;;;4.27;;
3491;SDS011;1760;52.480;13.422;2023-05-10T02:20:50;5.30;;;4.13;;
3491;SDS011;1760;52.480;13.422;2023-05-10T02:23:21;5.67;;;4.10;;
3491;SDS011;1760;52.480;13.422;2023-05-10T02:25:54;6.40;;;4.30;;
3491;SDS011;1760;52.480;13.422;2023-05-10T02:28:22;7.03;;;4.23;;
3491;SDS011;1760;52.480;13.422;2023-05-10T02:30:51;5.83;;;4.27;;
3491;SDS011;1760;52.480;13.422;2023-05-10T02:33:21;4.93;;;3.83;;
3491;SDS011;1760;52.480;13.422;2023-05-10T02:35:48;7.00;;;4.60;;
3491;SDS011;1760;52.480;13.422;2023-05-10T02:38:17;5.70;;;3.97;;
3491;SDS011;1760;52.480;13.422;2023-05-10T02:40:47;4.83;;;3.83;;
3491;SDS011;1760;52.480;13.422;2023-05-10T02:43:15;6.53;;;3.80;;
3491;SDS011;1760;52.480;13.422;2023-05-10T02:45:47;4.23;;;3.83;;
3491;SDS011;1760;52.480;13.422;2023-05-10T02:48:15;7.40;;;4.50;;
3491;SDS011;1760;52.480;13.422;2023-05-10T02:50:46;10.87;;;4.43;;
3491;SDS011;1760;52.480;13.422;2023-05-10T02:53:18;9.30;;;4.50;;
3491;SDS011;1760;52.480;13.422;2023-05-10T02:55:49;15.10;;;4.20;;
3491;SDS011;1760;52.480;13.422;2023-05-10T02:58:21;7.63;;;4.40;;
3491;SDS011;1760;52.480;13.422;2023-05-10T03:00:48;9.50;;;4.70;;
3491;SDS011;1760;52.480;13.422;2023-05-10T03:03:16;3.60;;;3.27;;
3491;SDS011;1760;52.480;13.422;2023-05-10T03:05:43;5.47;;;3.63;;
3491;SDS011;1760;52.480;13.422;2023-05-10T03:08:10;7.10;;;3.63;;
3491;SDS011;1760;52.480;13.422;2023-05-10T03:10:41;6.13;;;4.53;;
3491;SDS011;1760;52.480;13.422;2023-05-10T03:13:20;8.00;;;3.73;;
3491;SDS011;1760;52.480;13.422;2023-05-10T03:16:02;4.70;;;3.87;;
3491;SDS011;1760;52.480;13.422;2023-05-10T03:18:36;11.50;;;4.00;;
3491;SDS011;1760;52.480;13.422;2023-05-10T03:21:11;4.93;;;3.90;;
3491;SDS011;1760;52.480;13.422;2023-05-10T03:23:40;6.00;;;3.70;;
3491;SDS011;1760;52.480;13.422;2023-05-10T03:26:12;5.60;;;3.60;;
3491;SDS011;1760;52.480;13.422;2023-05-10T03:28:45;5.17;;;3.87;;
3491;SDS011;1760;52.480;13.422;2023-05-10T03:31:12;4.77;;;3.73;;
3491;SDS011;1760;52.480;13.422;2023-05-10T03:33:46;6.90;;;4.43;;
3491;SDS011;1760;52.480;13.422;2023-05-10T03:36:14;7.70;;;3.57;;
3491;SDS011;1760;52.480;13.422;2023-05-10T03:38:41;4.90;;;4.00;;
3491;SDS011;1760;52.480;13.422;2023-05-10T03:41:08;6.90;;;3.67;;
3491;SDS011;1760;52.480;13.422;2023-05-10T03:43:36;9.43;;;4.03;;
3491;SDS011;1760;52.480;13.422;2023-05-10T03:46:05;4.17;;;3.30;;
3491;SDS011;1760;52.480;13.422;2023-05-10T03:48:32;4.77;;;3.30;;
3491;SDS011;1760;52.480;13.422;2023-05-10T03:50:59;4.17;;;3.30;;
3491;SDS011;1760;52.480;13.422;2023-05-10T03:53:27;8.30;;;4.30;;
3491;SDS011;1760;52.480;13.422;2023-05-10T03:55:54;6.20;;;3.53;;
3491;SDS011;1760;52.480;13.422;2023-05-10T03:58:21;7.10;;;3.60;;
3491;SDS011;1760;52.480;13.422;2023-05-10T04:00:50;6.13;;;3.67;;
3491;SDS011;1760;52.480;13.422;2023-05-10T04:03:17;3.43;;;2.97;;
3491;SDS011;1760;52.480;13.422;2023-05-10T04:05:45;9.03;;;4.80;;
3491;SDS011;1760;52.480;13.422;2023-05-10T04:08:12;5.10;;;3.73;;
3491;SDS011;1760;52.480;13.422;2023-05-10T04:10:41;5.10;;;3.10;;
3491;SDS011;1760;52.480;13.422;2023-05-10T04:13:08;4.40;;;3.03;;
3491;SDS011;1760;52.480;13.422;2023-05-10T04:15:36;6.27;;;4.10;;
3491;SDS011;1760;52.480;13.422;2023-05-10T04:18:04;5.10;;;3.53;;
3491;SDS011;1760;52.480;13.422;2023-05-10T04:20:32;7.70;;;3.53;;
3491;SDS011;1760;52.480;13.422;2023-05-10T04:22:59;5.63;;;3.83;;
3491;SDS011;1760;52.480;13.422;2023-05-10T04:25:26;5.30;;;3.77;;
3491;SDS011;1760;52.480;13.422;2023-05-10T04:27:53;5.93;;;3.90;;
3491;SDS011;1760;52.480;13.422;2023-05-10T04:30:20;5.73;;;3.60;;
3491;SDS011;1760;52.480;13.422;2023-05-10T04:32:47;5.57;;;3.33;;
3491;SDS011;1760;52.480;13.422;2023-05-10T04:35:16;6.20;;;3.40;;
3491;SDS011;1760;52.480;13.422;2023-05-10T04:37:43;7.30;;;3.97;;
3491;SDS011;1760;52.480;13.422;2023-05-10T04:40:17;4.40;;;3.47;;
3491;SDS011;1760;52.480;13.422;2023-05-10T04:42:45;6.23;;;3.67;;
3491;SDS011;1760;52.480;13.422;2023-05-10T04:45:12;4.47;;;3.10;;
3491;SDS011;1760;52.480;13.422;2023-05-10T04:47:40;4.17;;;3.83;;
3491;SDS011;1760;52.480;13.422;2023-05-10T04:50:07;4.10;;;3.17;;
3491;SDS011;1760;52.480;13.422;2023-05-10T04:52:39;5.33;;;3.60;;
3491;SDS011;1760;52.480;13.422;2023-05-10T04:55:06;8.60;;;3.63;;
3491;SDS011;1760;52.480;13.422;2023-05-10T04:57:34;7.03;;;3.07;;
3491;SDS011;1760;52.480;13.422;2023-05-10T05:00:02;7.03;;;4.17;;
3491;SDS011;1760;52.480;13.422;2023-05-10T05:02:29;6.90;;;2.87;;
3491;SDS011;1760;52.480;13.422;2023-05-10T05:04:56;7.13;;;3.67;;
3491;SDS011;1760;52.480;13.422;2023-05-10T05:07:23;3.97;;;2.97;;
3491;SDS011;1760;52.480;13.422;2023-05-10T05:09:52;14.23;;;3.67;;
3491;SDS011;1760;52.480;13.422;2023-05-10T05:12:19;5.97;;;3.93;;
3491;SDS011;1760;52.480;13.422;2023-05-10T05:14:46;3.40;;;3.03;;
3491;SDS011;1760;52.480;13.422;2023-05-10T05:17:13;4.60;;;3.00;;
3491;SDS011;1760;52.480;13.422;2023-05-10T05:19:41;3.60;;;3.13;;
3491;SDS011;1760;52.480;13.422;2023-05-10T05:22:08;5.97;;;3.43;;
3491;SDS011;1760;52.480;13.422;2023-05-10T05:24:35;6.43;;;3.70;;
3491;SDS011;1760;52.480;13.422;2023-05-10T05:27:04;4.27;;;3.03;;
3491;SDS011;1760;52.480;13.422;2023-05-10T05:29:31;7.87;;;3.20;;
3491;SDS011;1760;52.480;13.422;2023-05-10T05:31:58;4.17;;;2.80;;
3491;SDS011;1760;52.480;13.422;2023-05-10T05:34:25;5.80;;;2.80;;
3491;SDS011;1760;52.480;13.422;2023-05-10T05:36:53;5.53;;;2.90;;
3491;SDS011;1760;52.480;13.422;2023-05-10T05:39:20;8.63;;;3.67;;
3491;SDS011;1760;52.480;13.422;2023-05-10T05:41:47;10.17;;;3.80;;
3491;SDS011;1760;52.480;13.422;2023-05-10T05:44:16;4.60;;;3.03;;
3491;SDS011;1760;52.480;13.422;2023-05-10T05:46:42;4.30;;;2.97;;
3491;SDS011;1760;52.480;13.422;2023-05-10T05:49:10;6.50;;;2.67;;
3491;SDS011;1760;52.480;13.422;2023-05-10T05:51:37;9.40;;;2.87;;
3491;SDS011;1760;52.480;13.422;2023-05-10T05:54:04;3.00;;;2.63;;
3491;SDS011;1760;52.480;13.422;2023-05-10T05:56:31;5.70;;;4.80;;
3491;SDS011;1760;52.480;13.422;2023-05-10T05:58:58;4.77;;;3.10;;
3491;SDS011;1760;52.480;13.422;2023-05-10T06:01:27;7.93;;;2.47;;
3491;SDS011;1760;52.480;13.422;2023-05-10T06:03:54;3.43;;;3.10;;
3491;SDS011;1760;52.480;13.422;2023-05-10T06:06:21;3.67;;;2.90;;
3491;SDS011;1760;52.480;13.422;2023-05-10T06:08:48;4.60;;;3.53;;
3491;SDS011;1760;52.480;13.422;2023-05-10T06:11:15;2.80;;;2.50;;
3491;SDS011;1760;52.480;13.422;2023-05-10T06:13:42;3.53;;;2.70;;
3491;SDS011;1760;52.480;13.422;2023-05-10T06:16:09;5.07;;;2.77;;
3491;SDS011;1760;52.480;13.422;2023-05-10T06:18:38;4.40;;;2.47;;
3491;SDS011;1760;52.480;13.422;2023-05-10T06:21:05;3.67;;;2.87;;
3491;SDS011;1760;52.480;13.422;2023-05-10T06:23:32;4.40;;;2.40;;
3491;SDS011;1760;52.480;13.422;2023-05-10T06:26:00;7.13;;;3.77;;
3491;SDS011;1760;52.480;13.422;2023-05-10T06:28:28;3.87;;;2.50;;
3491;SDS011;1760;52.480;13.422;2023-05-10T06:30:56;3.03;;;2.17;;
3491;SDS011;1760;52.480;13.422;2023-05-10T06:33:23;6.17;;;2.63;;
3491;SDS011;1760;52.480;13.422;2023-05-10T06:35:52;4.47;;;3.43;;
3491;SDS011;1760;52.480;13.422;2023-05-10T06:38:19;6.80;;;2.27;;
3491;SDS011;1760;52.480;13.422;2023-05-10T06:40:46;3.00;;;2.50;;
3491;SDS011;1760;52.480;13.422;2023-05-10T06:43:13;3.07;;;2.60;;
3491;SDS011;1760;52.480;13.422;2023-05-10T06:45:40;2.40;;;2.20;;
3491;SDS011;1760;52.480;13.422;2023-05-10T06:48:08;4.47;;;2.83;;
3491;SDS011;1760;52.480;13.422;2023-05-10T06:50:35;4.40;;;2.80;;
3491;SDS011;1760;52.480;13.422;2023-05-10T06:53:03;4.27;;;2.43;;
3491;SDS011;1760;52.480;13.422;2023-05-10T06:55:30;4.07;;;2.50;;
3491;SDS011;1760;52.480;13.422;2023-05-10T06:57:57;8.80;;;2.47;;
3491;SDS011;1760;52.480;13.422;2023-05-10T07:00:24;6.83;;;2.43;;
3491;SDS011;1760;52.480;13.422;2023-05-10T07:02:52;2.40;;;2.00;;
3491;SDS011;1760;52.480;13.422;2023-05-10T07:05:20;2.83;;;2.50;;
3491;SDS011;1760;52.480;13.422;2023-05-10T07:07:47;7.33;;;2.90;;
3491;SDS011;1760;52.480;13.422;2023-05-10T07:10:16;4.33;;;2.27;;
3491;SDS011;1760;52.480;13.422;2023-05-10T07:12:43;5.27;;;2.77;;
3491;SDS011;1760;52.480;13.422;2023-05-10T07:15:10;9.30;;;2.27;;
3491;SDS011;1760;52.480;13.422;2023-05-10T07:17:37;7.07;;;2.67;;
3491;SDS011;1760;52.480;13.422;2023-05-10T07:20:05;2.87;;;2.13;;
3491;SDS011;1760;52.480;13.422;2023-05-10T07:22:32;5.73;;;2.13;;
3491;SDS011;1760;52.480;13.422;2023-05-10T07:24:59;5.73;;;2.77;;
3491;SDS011;1760;52.480;13.422;2023-05-10T07:27:28;2.37;;;1.97;;
3491;SDS011;1760;52.480;13.422;2023-05-10T07:29:55;2.97;;;2.63;;
3491;SDS011;1760;52.480;13.422;2023-05-10T07:32:23;4.77;;;2.87;;
3491;SDS011;1760;52.480;13.422;2023-05-10T07:34:50;2.80;;;2.23;;
3491;SDS011;1760;52.480;13.422;2023-05-10T07:37:18;2.27;;;2.07;;
3491;SDS011;1760;52.480;13.422;2023-05-10T07:39:46;3.03;;;2.40;;
3491;SDS011;1760;52.480;13.422;2023-05-10T07:42:13;3.40;;;2.70;;
3491;SDS011;1760;52.480;13.422;2023-05-10T07:44:42;3.20;;;2.27;;
3491;SDS011;1760;52.480;13.422;2023-05-10T07:47:09;3.00;;;2.10;;
3491;SDS011;1760;52.480;13.422;2023-05-10T07:49:36;4.00;;;2.67;;
3491;SDS011;1760;52.480;13.422;2023-05-10T07:52:03;4.40;;;2.60;;
3491;SDS011;1760;52.480;13.422;2023-05-10T07:54:31;3.60;;;2.37;;
3491;SDS011;1760;52.480;13.422;2023-05-10T07:56:59;2.57;;;2.30;;
3491;SDS011;1760;52.480;13.422;2023-05-10T07:59:26;6.07;;;2.70;;
3491;SDS011;1760;52.480;13.422;2023-05-10T08:01:55;3.93;;;2.60;;
3491;SDS011;1760;52.480;13.422;2023-05-10T08:04:22;4.33;;;3.17;;
3491;SDS011;1760;52.480;13.422;2023-05-10T08:06:49;6.07;;;2.60;;
3491;SDS011;1760;52.480;13.422;2023-05-10T08:09:16;3.33;;;2.43;;
3491;SDS011;1760;52.480;13.422;2023-05-10T08:11:48;3.37;;;2.70;;
3491;SDS011;1760;52.480;13.422;2023-05-10T08:14:15;2.83;;;2.30;;
3491;SDS011;1760;52.480;13.422;2023-05-10T08:16:43;4.23;;;2.60;;
3491;SDS011;1760;52.480;13.422;2023-05-10T08:19:11;2.70;;;2.30;;
3491;SDS011;1760;52.480;13.422;2023-05-10T08:21:38;2.77;;;2.57;;
3491;SDS011;1760;52.480;13.422;2023-05-10T08:24:07;3.60;;;2.93;;
3491;SDS011;1760;52.480;13.422;2023-05-10T08:26:34;4.57;;;2.80;;
3491;SDS011;1760;52.480;13.422;2023-05-10T08:29:01;3.10;;;2.67;;
3491;SDS011;1760;52.480;13.422;2023-05-10T08:31:28;2.57;;;2.10;;
3491;SDS011;1760;52.480;13.422;2023-05-10T08:33:55;4.97;;;2.33;;
3491;SDS011;1760;52.480;13.422;2023-05-10T08:36:24;3.67;;;2.50;;
3491;SDS011;1760;52.480;13.422;2023-05-10T08:38:51;9.00;;;2.60;;
3491;SDS011;1760;52.480;13.422;2023-05-10T08:41:19;4.83;;;2.90;;
3491;SDS011;1760;52.480;13.422;2023-05-10T08:43:46;3.47;;;2.53;;
3491;SDS011;1760;52.480;13.422;2023-05-10T08:46:14;3.30;;;2.80;;
3491;SDS011;1760;52.480;13.422;2023-05-10T08:48:43;3.60;;;2.80;;
3491;SDS011;1760;52.480;13.422;2023-05-10T08:51:12;6.33;;;2.80;;
3491;SDS011;1760;52.480;13.422;2023-05-10T08:53:42;2.80;;;2.50;;
3491;SDS011;1760;52.480;13.422;2023-05-10T08:56:10;4.10;;;2.63;;
3491;SDS011;1760;52.480;13.422;2023-05-10T08:58:37;3.80;;;2.77;;
3491;SDS011;1760;52.480;13.422;2023-05-10T09:01:05;3.90;;;2.50;;
3491;SDS011;1760;52.480;13.422;2023-05-10T09:03:32;4.00;;;3.60;;
3491;SDS011;1760;52.480;13.422;2023-05-10T09:05:59;3.30;;;3.00;;
3491;SDS011;1760;52.480;13.422;2023-05-10T09:08:26;9.03;;;2.40;;
3491;SDS011;1760;52.480;13.422;2023-05-10T09:10:55;3.33;;;2.57;;
3491;SDS011;1760;52.480;13.422;2023-05-10T09:13:23;3.83;;;3.33;;
3491;SDS011;1760;52.480;13.422;2023-05-10T09:15:51;2.90;;;2.70;;
3491;SDS011;1760;52.480;13.422;2023-05-10T09:18:19;5.43;;;2.60;;
3491;SDS011;1760;52.480;13.422;2023-05-10T09:20:46;2.80;;;2.50;;
3491;SDS011;1760;52.480;13.422;2023-05-10T09:23:13;2.70;;;2.20;;
3491;SDS011;1760;52.480;13.422;2023-05-10T09:25:40;2.90;;;2.63;;
3491;SDS011;1760;52.480;13.422;2023-05-10T09:28:09;2.70;;;2.50;;
3491;SDS011;1760;52.480;13.422;2023-05-10T09:30:36;3.57;;;3.17;;
3491;SDS011;1760;52.480;13.422;2023-05-10T09:33:03;3.80;;;2.90;;
3491;SDS011;1760;52.480;13.422;2023-05-10T09:35:31;4.00;;;3.70;;
3491;SDS011;1760;52.480;13.422;2023-05-10T09:37:59;8.00;;;2.73;;
3491;SDS011;1760;52.480;13.422;2023-05-10T09:40:27;2.57;;;2.37;;
3491;SDS011;1760;52.480;13.422;2023-05-10T09:42:55;2.63;;;2.30;;
3491;SDS011;1760;52.480;13.422;2023-05-10T09:45:25;4.13;;;3.03;;
3491;SDS011;1760;52.480;13.422;2023-05-10T09:47:53;3.40;;;3.10;;
3491;SDS011;1760;52.480;13.422;2023-05-10T09:50:20;3.00;;;2.70;;
3491;SDS011;1760;52.480;13.422;2023-05-10T09:52:48;3.00;;;2.40;;
3491;SDS011;1760;52.480;13.422;2023-05-10T09:55:17;2.90;;;2.70;;
3491;SDS011;1760;52.480;13.422;2023-05-10T09:57:45;5.40;;;2.80;;
3491;SDS011;1760;52.480;13.422;2023-05-10T10:00:16;5.73;;;2.40;;
3491;SDS011;1760;52.480;13.422;2023-05-10T10:02:46;3.20;;;2.17;;
3491;SDS011;1760;52.480;13.422;2023-05-10T10:05:14;2.97;;;2.67;;
3491;SDS011;1760;52.480;13.422;2023-05-10T10:07:42;4.30;;;2.47;;
3491;SDS011;1760;52.480;13.422;2023-05-10T10:10:09;3.00;;;2.70;;
3491;SDS011;1760;52.480;13.422;2023-05-10T10:12:40;3.17;;;2.40;;
3491;SDS011;1760;52.480;13.422;2023-05-10T10:15:08;3.70;;;2.50;;
3491;SDS011;1760;52.480;13.422;2023-05-10T10:17:35;3.17;;;2.67;;
3491;SDS011;1760;52.480;13.422;2023-05-10T10:20:06;4.73;;;3.47;;
3491;SDS011;1760;52.480;13.422;2023-05-10T10:22:33;6.20;;;2.97;;
3491;SDS011;1760;52.480;13.422;2023-05-10T10:25:00;3.20;;;2.47;;
3491;SDS011;1760;52.480;13.422;2023-05-10T10:27:28;3.03;;;2.60;;
3491;SDS011;1760;52.480;13.422;2023-05-10T10:30:13;3.43;;;3.13;;
3491;SDS011;1760;52.480;13.422;2023-05-10T10:32:57;3.33;;;2.70;;
3491;SDS011;1760;52.480;13.422;2023-05-10T10:35:36;3.30;;;2.87;;
3491;SDS011;1760;52.480;13.422;2023-05-10T10:38:03;3.10;;;2.60;;
3491;SDS011;1760;52.480;13.422;2023-05-10T10:40:31;3.10;;;2.80;;
3491;SDS011;1760;52.480;13.422;2023-05-10T10:43:20;3.43;;;3.13;;
3491;SDS011;1760;52.480;13.422;2023-05-10T10:45:48;7.50;;;3.70;;
3491;SDS011;1760;52.480;13.422;2023-05-10T10:48:36;4.33;;;3.00;;
3491;SDS011;1760;52.480;13.422;2023-05-10T10:51:04;3.00;;;2.60;;
3491;SDS011;1760;52.480;13.422;2023-05-10T10:53:31;3.00;;;2.70;;
3491;SDS011;1760;52.480;13.422;2023-05-10T10:56:02;3.50;;;3.20;;
3491;SDS011;1760;52.480;13.422;2023-05-10T10:58:33;4.63;;;2.63;;
3491;SDS011;1760;52.480;13.422;2023-05-10T11:01:13;6.83;;;2.90;;
3491;SDS011;1760;52.480;13.422;2023-05-10T11:03:54;4.70;;;3.13;;
3491;SDS011;1760;52.480;13.422;2023-05-10T11:06:45;3.33;;;2.97;;
3491;SDS011;1760;52.480;13.422;2023-05-10T11:09:12;3.40;;;2.77;;
3491;SDS011;1760;52.480;13.422;2023-05-10T11:11:49;3.20;;;2.90;;
3491;SDS011;1760;52.480;13.422;2023-05-10T11:14:20;3.10;;;2.83;;
3491;SDS011;1760;52.480;13.422;2023-05-10T11:16:48;3.17;;;2.37;;
3491;SDS011;1760;52.480;13.422;2023-05-10T11:19:15;2.73;;;2.20;;
3491;SDS011;1760;52.480;13.422;2023-05-10T11:21:48;2.63;;;2.43;;
3491;SDS011;1760;52.480;13.422;2023-05-10T11:24:17;2.90;;;2.40;;
3491;SDS011;1760;52.480;13.422;2023-05-10T11:26:45;2.97;;;2.77;;
3491;SDS011;1760;52.480;13.422;2023-05-10T11:29:12;3.00;;;2.53;;
3491;SDS011;1760;52.480;13.422;2023-05-10T11:31:42;3.60;;;2.87;;
3491;SDS011;1760;52.480;13.422;2023-05-10T11:34:11;3.73;;;2.70;;
3491;SDS011;1760;52.480;13.422;2023-05-10T11:36:41;2.20;;;2.00;;
3491;SDS011;1760;52.480;13.422;2023-05-10T11:39:11;6.43;;;3.27;;
3491;SDS011;1760;52.480;13.422;2023-05-10T11:41:38;4.13;;;2.93;;
3491;SDS011;1760;52.480;13.422;2023-05-10T11:44:06;3.37;;;2.83;;
3491;SDS011;1760;52.480;13.422;2023-05-10T11:46:36;3.10;;;2.90;;
3491;SDS011;1760;52.480;13.422;2023-05-10T11:49:04;2.70;;;2.50;;
3491;SDS011;1760;52.480;13.422;2023-05-10T11:51:33;3.20;;;2.57;;
3491;SDS011;1760;52.480;13.422;2023-05-10T11:54:01;3.27;;;2.97;;
3491;SDS011;1760;52.480;13.422;2023-05-10T11:56:34;3.40;;;3.10;;
3491;SDS011;1760;52.480;13.422;2023-05-10T11:59:01;4.40;;;3.20;;
3491;SDS011;1760;52.480;13.422;2023-05-10T12:01:29;3.10;;;2.80;;
3491;SDS011;1760;52.480;13.422;2023-05-10T12:03:56;2.70;;;2.50;;
3491;SDS011;1760;52.480;13.422;2023-05-10T12:06:25;3.13;;;2.83;;
3491;SDS011;1760;52.480;13.422;2023-05-10T12:08:53;4.40;;;2.90;;
3491;SDS011;1760;52.480;13.422;2023-05-10T12:11:23;3.87;;;2.80;;
3491;SDS011;1760;52.480;13.422;2023-05-10T12:13:53;3.30;;;2.77;;
3491;SDS011;1760;52.480;13.422;2023-05-10T12:16:21;3.47;;;3.17;;
3491;SDS011;1760;52.480;13.422;2023-05-10T12:18:49;6.93;;;2.70;;
3491;SDS011;1760;52.480;13.422;2023-05-10T12:21:17;3.00;;;2.70;;
3491;SDS011;1760;52.480;13.422;2023-05-10T12:23:45;3.50;;;2.70;;
3491;SDS011;1760;52.480;13.422;2023-05-10T12:26:13;2.70;;;2.50;;
3491;SDS011;1760;52.480;13.422;2023-05-10T12:28:40;6.10;;;2.93;;
3491;SDS011;1760;52.480;13.422;2023-05-10T12:31:09;4.60;;;2.40;;
3491;SDS011;1760;52.480;13.422;2023-05-10T12:33:36;2.90;;;2.00;;
3491;SDS011;1760;52.480;13.422;2023-05-10T12:36:08;3.80;;;2.47;;
3491;SDS011;1760;52.480;13.422;2023-05-10T12:38:36;3.33;;;2.43;;
3491;SDS011;1760;52.480;13.422;2023-05-10T12:41:04;3.63;;;2.70;;
3491;SDS011;1760;52.480;13.422;2023-05-10T12:43:32;5.60;;;2.70;;
3491;SDS011;1760;52.480;13.422;2023-05-10T12:46:04;3.47;;;2.50;;
3491;SDS011;1760;52.480;13.422;2023-05-10T12:48:32;3.27;;;2.53;;
3491;SDS011;1760;52.480;13.422;2023-05-10T12:51:00;5.30;;;2.67;;
3491;SDS011;1760;52.480;13.422;2023-05-10T12:53:27;3.10;;;2.80;;
3491;SDS011;1760;52.480;13.422;2023-05-10T12:55:54;3.40;;;2.80;;
3491;SDS011;1760;52.480;13.422;2023-05-10T12:58:21;4.07;;;3.33;;
3491;SDS011;1760;52.480;13.422;2023-05-10T13:00:48;2.23;;;2.00;;
3491;SDS011;1760;52.480;13.422;2023-05-10T13:03:16;5.73;;;2.30;;
3491;SDS011;1760;52.480;13.422;2023-05-10T13:05:47;4.40;;;2.27;;
3491;SDS011;1760;52.480;13.422;2023-05-10T13:08:14;3.43;;;2.47;;
3491;SDS011;1760;52.480;13.422;2023-05-10T13:10:41;2.30;;;2.10;;
3491;SDS011;1760;52.480;13.422;2023-05-10T13:13:09;2.37;;;2.17;;
3491;SDS011;1760;52.480;13.422;2023-05-10T13:15:36;2.80;;;2.60;;
3491;SDS011;1760;52.480;13.422;2023-05-10T13:18:03;2.70;;;2.20;;
3491;SDS011;1760;52.480;13.422;2023-05-10T13:20:30;2.90;;;2.53;;
3491;SDS011;1760;52.480;13.422;2023-05-10T13:22:59;3.67;;;3.30;;
3491;SDS011;1760;52.480;13.422;2023-05-10T13:25:26;3.03;;;2.77;;
3491;SDS011;1760;52.480;13.422;2023-05-10T13:27:53;4.07;;;3.67;;
3491;SDS011;1760;52.480;13.422;2023-05-10T13:30:20;4.63;;;3.70;;
3491;SDS011;1760;52.480;13.422;2023-05-10T13:32:48;3.57;;;2.70;;
3491;SDS011;1760;52.480;13.422;2023-05-10T13:35:16;4.03;;;2.70;;
3491;SDS011;1760;52.480;13.422;2023-05-10T13:37:43;3.37;;;3.07;;
3491;SDS011;1760;52.480;13.422;2023-05-10T13:40:11;7.20;;;5.30;;
3491;SDS011;1760;52.480;13.422;2023-05-10T13:42:40;3.23;;;2.90;;
3491;SDS011;1760;52.480;13.422;2023-05-10T13:45:07;4.70;;;2.97;;
3491;SDS011;1760;52.480;13.422;2023-05-10T13:47:36;4.70;;;2.90;;
3491;SDS011;1760;52.480;13.422;2023-05-10T13:50:04;3.77;;;2.63;;
3491;SDS011;1760;52.480;13.422;2023-05-10T13:52:31;3.53;;;2.60;;
3491;SDS011;1760;52.480;13.422;2023-05-10T13:54:59;4.73;;;2.30;;
3491;SDS011;1760;52.480;13.422;2023-05-10T13:57:27;2.23;;;2.03;;
3491;SDS011;1760;52.480;13.422;2023-05-10T13:59:55;2.23;;;2.03;;
3491;SDS011;1760;52.480;13.422;2023-05-10T14:02:22;2.40;;;2.20;;
3491;SDS011;1760;52.480;13.422;2023-05-10T14:04:50;2.70;;;2.30;;
3491;SDS011;1760;52.480;13.422;2023-05-10T14:07:17;2.50;;;1.80;;
3491;SDS011;1760;52.480;13.422;2023-05-10T14:09:45;2.73;;;2.37;;
3491;SDS011;1760;52.480;13.422;2023-05-10T14:12:12;3.30;;;2.20;;
3491;SDS011;1760;52.480;13.422;2023-05-10T14:14:40;4.50;;;2.43;;
3491;SDS011;1760;52.480;13.422;2023-05-10T14:17:08;3.23;;;2.37;;
3491;SDS011;1760;52.480;13.422;2023-05-10T14:19:35;3.20;;;2.60;;
3491;SDS011;1760;52.480;13.422;2023-05-10T14:22:02;3.50;;;2.33;;
3491;SDS011;1760;52.480;13.422;2023-05-10T14:24:29;3.00;;;2.30;;
3491;SDS011;1760;52.480;13.422;2023-05-10T14:26:56;3.30;;;2.60;;
3491;SDS011;1760;52.480;13.422;2023-05-10T14:29:23;3.13;;;2.40;;
3491;SDS011;1760;52.480;13.422;2023-05-10T14:31:52;2.50;;;1.97;;
3491;SDS011;1760;52.480;13.422;2023-05-10T14:34:19;2.50;;;2.30;;
3491;SDS011;1760;52.480;13.422;2023-05-10T14:36:46;5.97;;;2.47;;
3491;SDS011;1760;52.480;13.422;2023-05-10T14:39:13;3.30;;;2.27;;
3491;SDS011;1760;52.480;13.422;2023-05-10T14:41:40;2.73;;;2.40;;
3491;SDS011;1760;52.480;13.422;2023-05-10T14:44:09;2.67;;;2.27;;
3491;SDS011;1760;52.480;13.422;2023-05-10T14:46:36;3.23;;;2.33;;
3491;SDS011;1760;52.480;13.422;2023-05-10T14:49:05;3.10;;;2.80;;
3491;SDS011;1760;52.480;13.422;2023-05-10T14:51:33;4.60;;;2.33;;
3491;SDS011;1760;52.480;13.422;2023-05-10T14:54:01;2.50;;;2.30;;
3491;SDS011;1760;52.480;13.422;2023-05-10T14:56:29;4.43;;;3.13;;
3491;SDS011;1760;52.480;13.422;2023-05-10T14:58:56;3.33;;;2.90;;
3491;SDS011;1760;52.480;13.422;2023-05-10T15:01:24;3.90;;;2.27;;
3491;SDS011;1760;52.480;13.422;2023-05-10T15:03:51;3.10;;;2.70;;
3491;SDS011;1760;52.480;13.422;2023-05-10T15:06:22;2.97;;;2.13;;
3491;SDS011;1760;52.480;13.422;2023-05-10T15:08:50;3.80;;;3.00;;
3491;SDS011;1760;52.480;13.422;2023-05-10T15:11:18;3.93;;;2.43;;
3491;SDS011;1760;52.480;13.422;2023-05-10T15:13:45;5.10;;;3.27;;